NTAA METAR and TAF | Updated Today

NTAA METAR

Faa'a International Airport

Observation time: 10 min. ago

NTAA 292100Z 05016KT 9999 FEW026 28/21 Q1016 NOSIG

Need help? Read our tutorial on how to read METARs or read the parsed version below.

Faa'a International Airport (NTAA) METAR

  • Weather conditions on Thu, 29 Sep 2022 21:00:00 +0000 (10 min. ago):
  • Present conditions: Dry
  • Clouds: A few at 792 meters
  • Visibility: Greater than 10 km
  • Wind: 50 degrees at 16 knots
  • Temperature: 28 celsius
  • Dew point: 21 celsius
  • Pressure: 1016 millibars
  • Remarks: None


Useful to know...

NTAA TAF

Faa'a International Airport

TAF NTAA 291700Z 2918/3024 07012KT 9999 FEW023 TEMPO 2919/3002 04018G28KT
Observation time: 4:10 hr. ago
Need help? Read our tutorial on how to read TAFs or read the parsed version below.

Parsed version of TAF for Faa'a International Airport (NTAA)

  • From 29 September at 18:00 UTC, to day 30 of the month at 24:00 UTC
  • Clouds: A few at 701 meters
  • Visibility: Greater than 10 km
  • Wind: 70 degrees at 12
  • Expected to arise temporarily, from 29 September at 19:00 UTC, to day 30 of the month at 02:00 UTC
  • Wind: 40 degrees at 18

Airports near NTAA

No airports found within 100nm radius.